sensor_id;sensor_type;location;lat;lon;timestamp;pressure;altitude;pressure_sealevel;temperature;humidity
63582;BME280;49727;51.078;17.066;2023-06-24T00:05:12;100419.88;;;18.85;83.66
63582;BME280;49727;51.078;17.066;2023-06-24T00:20:13;100418.25;;;18.77;83.72
63582;BME280;49727;51.078;17.066;2023-06-24T00:35:14;100419.16;;;18.71;83.88
63582;BME280;49727;51.078;17.066;2023-06-24T00:50:15;100438.22;;;18.70;83.91
63582;BME280;49727;51.078;17.066;2023-06-24T01:05:16;100442.63;;;18.64;83.72
63582;BME280;49727;51.078;17.066;2023-06-24T01:20:27;100477.38;;;18.47;83.34
63582;BME280;49727;51.078;17.066;2023-06-24T01:35:33;100499.84;;;18.34;83.37
63582;BME280;49727;51.078;17.066;2023-06-24T01:50:36;100529.19;;;18.10;82.63
63582;BME280;49727;51.078;17.066;2023-06-24T02:05:37;100537.72;;;17.67;82.13
63582;BME280;49727;51.078;17.066;2023-06-24T02:20:41;100556.38;;;17.29;81.95
63582;BME280;49727;51.078;17.066;2023-06-24T02:35:44;100575.97;;;16.89;81.88
63582;BME280;49727;51.078;17.066;2023-06-24T02:50:46;100587.47;;;16.69;81.79
63582;BME280;49727;51.078;17.066;2023-06-24T03:05:47;100607.66;;;16.52;81.96
63582;BME280;49727;51.078;17.066;2023-06-24T03:20:50;100631.53;;;16.33;81.80
63582;BME280;49727;51.078;17.066;2023-06-24T03:35:51;100665.56;;;16.19;81.69
63582;BME280;49727;51.078;17.066;2023-06-24T03:50:51;100668.34;;;16.04;81.85
63582;BME280;49727;51.078;17.066;2023-06-24T04:05:55;100686.66;;;15.94;82.00
63582;BME280;49727;51.078;17.066;2023-06-24T04:20:56;100691.31;;;15.85;81.93
63582;BME280;49727;51.078;17.066;2023-06-24T04:35:57;100703.38;;;15.74;81.42
63582;BME280;49727;51.078;17.066;2023-06-24T04:50:58;100734.91;;;15.81;81.62
63582;BME280;49727;51.078;17.066;2023-06-24T05:05:59;100759.63;;;15.76;81.61
63582;BME280;49727;51.078;17.066;2023-06-24T05:20:59;100781.75;;;15.78;81.71
63582;BME280;49727;51.078;17.066;2023-06-24T05:35:59;100800.25;;;15.88;81.88
63582;BME280;49727;51.078;17.066;2023-06-24T05:51:00;100808.00;;;15.98;81.64
63582;BME280;49727;51.078;17.066;2023-06-24T06:06:00;100795.38;;;16.41;81.44
63582;BME280;49727;51.078;17.066;2023-06-24T06:21:00;100815.16;;;16.84;81.36
63582;BME280;49727;51.078;17.066;2023-06-24T06:36:01;100821.69;;;17.31;80.94
63582;BME280;49727;51.078;17.066;2023-06-24T06:51:01;100833.78;;;17.42;79.84
63582;BME280;49727;51.078;17.066;2023-06-24T07:06:01;100838.41;;;17.62;79.51
63582;BME280;49727;51.078;17.066;2023-06-24T07:21:02;100832.84;;;17.70;78.60
63582;BME280;49727;51.078;17.066;2023-06-24T07:36:02;100836.91;;;17.94;78.50
63582;BME280;49727;51.078;17.066;2023-06-24T07:51:03;100842.78;;;18.31;78.08
63582;BME280;49727;51.078;17.066;2023-06-24T08:06:04;100854.41;;;19.12;77.94
63582;BME280;49727;51.078;17.066;2023-06-24T08:21:04;100855.66;;;19.75;76.10
63582;BME280;49727;51.078;17.066;2023-06-24T08:36:05;100867.72;;;19.72;75.54
63582;BME280;49727;51.078;17.066;2023-06-24T08:51:07;100868.38;;;19.81;74.60
63582;BME280;49727;51.078;17.066;2023-06-24T09:06:08;100871.81;;;20.02;73.47
63582;BME280;49727;51.078;17.066;2023-06-24T09:21:10;100887.94;;;19.70;72.54
63582;BME280;49727;51.078;17.066;2023-06-24T09:36:14;100876.31;;;19.56;72.17
63582;BME280;49727;51.078;17.066;2023-06-24T09:51:15;100862.50;;;19.91;72.15
63582;BME280;49727;51.078;17.066;2023-06-24T10:06:16;100868.25;;;20.65;70.06
63582;BME280;49727;51.078;17.066;2023-06-24T10:21:16;100871.34;;;21.38;69.34
63582;BME280;49727;51.078;17.066;2023-06-24T10:36:44;100864.69;;;22.08;67.16
63582;BME280;49727;51.078;17.066;2023-06-24T10:51:53;100871.22;;;23.44;64.61
63582;BME280;49727;51.078;17.066;2023-06-24T11:07:00;100868.84;;;23.59;61.52
63582;BME280;49727;51.078;17.066;2023-06-24T11:22:01;100840.88;;;25.24;57.90
63582;BME280;49727;51.078;17.066;2023-06-24T11:37:15;100825.25;;;28.10;51.41
63582;BME280;49727;51.078;17.066;2023-06-24T11:52:15;100801.16;;;28.17;47.18
63582;BME280;49727;51.078;17.066;2023-06-24T12:07:16;100795.03;;;28.92;44.26
63582;BME280;49727;51.078;17.066;2023-06-24T12:22:16;100782.31;;;29.22;41.43
63582;BME280;49727;51.078;17.066;2023-06-24T12:37:16;100765.25;;;28.44;41.62
63582;BME280;49727;51.078;17.066;2023-06-24T12:52:17;100746.63;;;28.46;40.08
63582;BME280;49727;51.078;17.066;2023-06-24T13:07:17;100738.41;;;28.41;39.96
63582;BME280;49727;51.078;17.066;2023-06-24T13:22:17;100723.34;;;29.30;39.20
63582;BME280;49727;51.078;17.066;2023-06-24T13:37:18;100726.50;;;28.92;38.41
63582;BME280;49727;51.078;17.066;2023-06-24T13:52:18;100703.28;;;29.29;37.15
63582;BME280;49727;51.078;17.066;2023-06-24T14:07:19;100703.94;;;29.06;37.46
63582;BME280;49727;51.078;17.066;2023-06-24T14:22:19;100705.63;;;28.96;37.34
63582;BME280;49727;51.078;17.066;2023-06-24T14:37:20;100691.47;;;28.79;37.30
63582;BME280;49727;51.078;17.066;2023-06-24T14:52:21;100689.31;;;28.70;37.17
63582;BME280;49727;51.078;17.066;2023-06-24T15:07:21;100679.00;;;27.69;38.03
63582;BME280;49727;51.078;17.066;2023-06-24T15:22:21;100685.47;;;27.22;39.77
63582;BME280;49727;51.078;17.066;2023-06-24T15:37:23;100670.97;;;27.27;40.20
63582;BME280;49727;51.078;17.066;2023-06-24T15:52:23;100669.47;;;26.83;40.48
63582;BME280;49727;51.078;17.066;2023-06-24T16:07:24;100661.75;;;26.69;41.19
63582;BME280;49727;51.078;17.066;2023-06-24T16:22:24;100672.06;;;26.57;39.78
63582;BME280;49727;51.078;17.066;2023-06-24T16:37:24;100667.84;;;25.96;40.78
63582;BME280;49727;51.078;17.066;2023-06-24T16:52:25;100675.19;;;25.58;41.98
63582;BME280;49727;51.078;17.066;2023-06-24T17:07:25;100660.13;;;25.01;42.17
63582;BME280;49727;51.078;17.066;2023-06-24T17:22:25;100659.03;;;24.19;43.57
63582;BME280;49727;51.078;17.066;2023-06-24T17:37:26;100646.44;;;23.78;44.43
63582;BME280;49727;51.078;17.066;2023-06-24T17:52:26;100641.00;;;23.32;45.67
63582;BME280;49727;51.078;17.066;2023-06-24T18:07:26;100645.69;;;23.20;46.79
63582;BME280;49727;51.078;17.066;2023-06-24T18:22:27;100646.16;;;22.88;48.11
63582;BME280;49727;51.078;17.066;2023-06-24T18:37:28;100649.28;;;22.33;49.61
63582;BME280;49727;51.078;17.066;2023-06-24T18:52:30;100665.06;;;21.88;50.98
63582;BME280;49727;51.078;17.066;2023-06-24T19:07:31;100668.38;;;21.48;52.20
63582;BME280;49727;51.078;17.066;2023-06-24T19:22:31;100682.75;;;21.18;53.20
63582;BME280;49727;51.078;17.066;2023-06-24T19:37:31;100676.38;;;20.94;54.08
63582;BME280;49727;51.078;17.066;2023-06-24T19:52:32;100684.28;;;20.77;55.07
63582;BME280;49727;51.078;17.066;2023-06-24T20:07:32;100688.31;;;20.49;55.69
63582;BME280;49727;51.078;17.066;2023-06-24T20:22:32;100687.97;;;20.20;55.30
63582;BME280;49727;51.078;17.066;2023-06-24T20:37:33;100685.31;;;19.88;56.47
63582;BME280;49727;51.078;17.066;2023-06-24T20:52:33;100693.34;;;19.70;56.68
63582;BME280;49727;51.078;17.066;2023-06-24T21:07:35;100674.22;;;19.33;57.50
63582;BME280;49727;51.078;17.066;2023-06-24T21:22:36;100675.84;;;19.02;58.25
63582;BME280;49727;51.078;17.066;2023-06-24T21:37:36;100681.47;;;18.80;58.91
63582;BME280;49727;51.078;17.066;2023-06-24T21:52:37;100685.69;;;18.56;59.39
63582;BME280;49727;51.078;17.066;2023-06-24T22:07:37;100692.19;;;18.35;60.16
63582;BME280;49727;51.078;17.066;2023-06-24T22:22:41;100700.06;;;18.09;60.85
63582;BME280;49727;51.078;17.066;2023-06-24T22:37:43;100704.22;;;17.92;61.58
63582;BME280;49727;51.078;17.066;2023-06-24T22:52:44;100699.19;;;17.69;62.24
63582;BME280;49727;51.078;17.066;2023-06-24T23:07:44;100700.19;;;17.54;62.91
63582;BME280;49727;51.078;17.066;2023-06-24T23:22:45;100699.13;;;17.42;63.45
63582;BME280;49727;51.078;17.066;2023-06-24T23:37:45;100699.47;;;17.19;63.94
63582;BME280;49727;51.078;17.066;2023-06-24T23:52:46;100693.13;;;16.91;64.90
